Time;durP1;ratioP1;P1;durP2;ratioP2;P2;SDS_P1;SDS_P2;PMS_P1;PMS_P2;Temp;Humidity;BMP_temperature;BMP_pressure;BME280_temperature;BME280_humidity;BME280_pressure;Samples;Min_cycle;Max_cycle;Signal;HPM_P1;HPM_P2
2022/12/27 00:01:39;;;;;;;2.35;0.47;;;;;;;6.25;64.60;98073.00;4954797;28;20027;-78
2022/12/27 00:04:05;;;;;;;1.30;0.40;;;;;;;6.21;64.33;98066.63;4955087;28;20033;-77
2022/12/27 00:06:30;;;;;;;1.98;0.45;;;;;;;6.24;64.42;98071.38;4926371;28;20426;-78
2022/12/27 00:08:56;;;;;;;2.65;0.40;;;;;;;6.23;64.11;98074.97;4940314;28;20060;-77
2022/12/27 00:11:28;;;;;;;3.15;0.45;;;;;;;6.41;64.99;98083.00;4941131;28;20780;-78
2022/12/27 00:13:55;;;;;;;0.93;0.50;;;;;;;6.40;64.72;98080.59;4959179;28;20174;-78
2022/12/27 00:16:21;;;;;;;4.60;1.17;;;;;;;6.34;64.33;98079.56;4955365;28;20025;-77
2022/12/27 00:18:48;;;;;;;1.67;0.50;;;;;;;6.16;64.40;98080.91;4957657;28;20039;-77
2022/12/27 00:21:14;;;;;;;2.08;0.70;;;;;;;6.20;64.23;98070.97;4955527;28;20025;-77
2022/12/27 00:23:42;;;;;;;1.73;0.50;;;;;;;6.08;64.36;98080.28;4941257;28;20025;-78
2022/12/27 00:26:14;;;;;;;1.42;0.50;;;;;;;6.11;64.41;98079.91;4956764;28;20082;-77
2022/12/27 00:28:39;;;;;;;1.27;0.38;;;;;;;6.15;65.31;98084.50;4957972;28;20790;-78
2022/12/27 00:31:05;;;;;;;3.95;0.80;;;;;;;6.03;65.65;98088.59;4952993;28;20028;-77
2022/12/27 00:33:32;;;;;;;2.80;0.70;;;;;;;5.97;65.92;98079.84;4967920;28;20185;-77
2022/12/27 00:35:58;;;;;;;3.33;1.10;;;;;;;5.92;65.96;98078.81;4938677;28;20205;-77
2022/12/27 00:38:24;;;;;;;2.72;0.45;;;;;;;6.10;65.63;98071.38;4944718;28;20137;-78
2022/12/27 00:40:49;;;;;;;2.88;1.20;;;;;;;6.34;65.21;98079.56;4958154;28;20711;-77
2022/12/27 00:43:15;;;;;;;2.38;0.70;;;;;;;6.32;64.91;98071.22;4958533;28;20025;-77
2022/12/27 00:45:41;;;;;;;3.58;0.70;;;;;;;6.10;65.64;98071.38;4955787;28;20333;-76
2022/12/27 00:48:07;;;;;;;3.60;0.70;;;;;;;6.19;65.61;98070.19;4925802;28;20017;-76
2022/12/27 00:50:32;;;;;;;4.78;1.48;;;;;;;6.19;65.26;98072.78;4957045;28;20033;-76
2022/12/27 00:52:58;;;;;;;3.22;0.60;;;;;;;6.10;65.02;98076.53;4959277;28;20315;-77
2022/12/27 00:55:23;;;;;;;5.43;1.08;;;;;;;6.10;65.05;98079.13;4923560;28;20037;-77
2022/12/27 00:57:48;;;;;;;2.28;0.80;;;;;;;6.11;65.44;98075.53;4974650;28;20035;-77
2022/12/27 01:00:14;;;;;;;2.25;0.70;;;;;;;6.00;66.76;98086.44;4941186;28;20017;-77
2022/12/27 01:02:39;;;;;;;2.72;0.75;;;;;;;6.17;66.59;98084.31;4921945;28;21009;-77
2022/12/27 01:05:05;;;;;;;3.45;0.75;;;;;;;6.41;65.36;98085.59;4941974;28;20713;-77
2022/12/27 01:07:31;;;;;;;3.72;1.20;;;;;;;6.18;65.87;98084.09;4941012;28;20679;-78
2022/12/27 01:09:56;;;;;;;1.83;0.50;;;;;;;6.16;66.17;98090.47;4974250;28;20032;-77
2022/12/27 01:12:21;;;;;;;1.80;1.02;;;;;;;6.30;66.56;98096.50;4939062;28;20275;-77
2022/12/27 01:14:47;;;;;;;3.28;0.90;;;;;;;6.28;65.41;98101.06;4958372;28;20293;-77
2022/12/27 01:17:12;;;;;;;3.15;0.80;;;;;;;6.32;65.77;98104.84;4975462;28;20201;-77
2022/12/27 01:19:38;;;;;;;4.43;0.88;;;;;;;6.19;65.82;98103.03;4958278;28;20035;-77
2022/12/27 01:22:04;;;;;;;4.20;0.70;;;;;;;6.35;65.69;98104.47;4939193;28;20029;-77
2022/12/27 01:24:30;;;;;;;3.08;1.25;;;;;;;6.29;65.79;98120.75;4941351;28;20365;-78
2022/12/27 01:26:56;;;;;;;7.55;1.33;;;;;;;6.25;65.89;98122.13;4923098;28;20026;-76
2022/12/27 01:29:21;;;;;;;2.80;0.73;;;;;;;6.26;66.01;98114.19;4940492;28;20052;-77
2022/12/27 01:31:48;;;;;;;1.80;0.63;;;;;;;6.25;65.65;98125.50;4971135;28;20086;-77
2022/12/27 01:34:14;;;;;;;3.60;0.93;;;;;;;6.22;66.45;98127.69;4921117;28;20033;-76
2022/12/27 01:36:40;;;;;;;4.30;1.17;;;;;;;6.12;67.03;98125.47;4923264;28;20808;-76
2022/12/27 01:39:07;;;;;;;2.67;1.02;;;;;;;6.13;66.88;98122.66;4936835;28;20352;-76
2022/12/27 01:44:48;;;;;;;2.00;0.73;;;;;;;6.45;66.02;98142.91;4956921;28;20671;-77
2022/12/27 01:47:25;;;;;;;2.92;0.73;;;;;;;6.38;66.13;98135.13;4940395;28;20596;-78
2022/12/27 01:50:10;;;;;;;2.53;0.68;;;;;;;6.32;66.12;98135.88;4937418;28;20221;-77
2022/12/27 01:52:43;;;;;;;1.52;0.70;;;;;;;6.32;66.63;98138.47;4956038;28;20044;-77
2022/12/27 01:55:15;;;;;;;2.92;1.35;;;;;;;6.46;65.59;98140.13;4971711;28;20262;-77
2022/12/27 01:57:40;;;;;;;3.08;0.90;;;;;;;6.15;66.53;98151.75;4941997;28;20085;-76
2022/12/27 02:00:06;;;;;;;4.57;0.98;;;;;;;6.23;66.62;98149.97;4954241;28;20071;-77
2022/12/27 02:02:32;;;;;;;3.60;0.73;;;;;;;6.29;66.64;98142.25;4971932;28;20029;-77
2022/12/27 02:04:57;;;;;;;3.72;1.02;;;;;;;6.22;66.76;98150.94;4956666;28;20036;-77
2022/12/27 02:07:24;;;;;;;3.53;0.77;;;;;;;6.41;66.78;98158.03;4941386;28;20025;-77
2022/12/27 02:09:54;;;;;;;4.70;1.42;;;;;;;6.54;66.36;98154.66;4942548;28;20049;-77
2022/12/27 02:12:20;;;;;;;1.98;1.05;;;;;;;6.41;66.40;98160.59;4937476;28;20687;-77
2022/12/27 02:14:48;;;;;;;2.63;1.13;;;;;;;6.25;66.97;98163.50;4937064;28;20055;-76
2022/12/27 02:17:17;;;;;;;2.70;0.93;;;;;;;6.44;66.78;98169.75;4939166;28;20091;-77
2022/12/27 02:19:53;;;;;;;5.78;1.20;;;;;;;6.57;65.99;98162.84;4957893;28;20021;-77
2022/12/27 02:25:44;;;;;;;2.17;0.77;;;;;;;6.70;65.71;98171.63;4971135;28;20587;-76
2022/12/27 02:28:25;;;;;;;3.08;0.75;;;;;;;6.80;65.83;98172.06;4939886;28;20810;-77
2022/12/27 02:30:56;;;;;;;2.88;0.95;;;;;;;6.75;65.01;98174.44;4933557;28;20026;-78
2022/12/27 02:33:26;;;;;;;3.75;1.00;;;;;;;6.78;65.78;98175.84;4950102;28;20484;-77
2022/12/27 02:36:03;;;;;;;6.20;0.82;;;;;;;6.88;65.49;98164.13;4937817;28;20124;-77
2022/12/27 02:38:38;;;;;;;2.15;0.70;;;;;;;6.87;65.44;98170.31;4956206;28;20082;-76
2022/12/27 02:55:36;;;;;;;5.32;1.63;;;;;;;6.67;65.10;98172.03;4973146;28;20205;-77
2022/12/27 02:58:28;;;;;;;4.03;1.10;;;;;;;6.73;65.83;98173.84;4955179;28;20084;-77
2022/12/27 03:04:16;;;;;;;3.05;0.98;;;;;;;6.93;65.54;98177.28;4973731;28;20173;-77
2022/12/27 03:06:51;;;;;;;3.90;1.17;;;;;;;6.77;65.97;98177.66;4941243;28;21052;-77
2022/12/27 03:16:00;;;;;;;2.47;0.98;;;;;;;7.19;65.37;98170.56;4855279;29;20786;-77
2022/12/27 03:25:26;;;;;;;2.78;0.90;;;;;;;7.01;65.24;98172.91;4837812;29;20031;-77
2022/12/27 03:27:35;;;;;;;4.40;1.25;;;;;;;7.12;66.01;98164.56;4839131;29;20797;-77
2022/12/27 03:33:13;;;;;;;3.97;1.20;;;;;;;7.04;65.43;98154.41;4829648;29;20044;-78
2022/12/27 03:38:01;;;;;;;4.25;1.00;;;;;;;7.08;65.79;98155.63;4844881;29;20965;-77
2022/12/27 03:38:36;;;;;;;4.38;1.20;;;;;;;7.24;64.96;98150.03;4858432;29;20702;-77
2022/12/27 03:43:47;;;;;;;;;;;;;;;7.11;64.30;98162.97;4845094;29;20130;-77
2022/12/27 03:46:34;;;;;;;2.97;1.10;;;;;;;6.85;65.40;98163.72;4826518;29;20072;-77
2022/12/27 03:49:18;;;;;;;2.63;1.85;;;;;;;7.04;64.94;98167.34;4859086;28;20219;-77
2022/12/27 03:52:20;;;;;;;2.45;0.82;;;;;;;7.09;64.75;98164.97;4958664;28;20579;-77
2022/12/27 03:54:47;;;;;;;3.33;0.95;;;;;;;6.84;65.03;98160.34;4926539;28;20865;-77
2022/12/27 03:57:18;;;;;;;3.22;0.82;;;;;;;7.05;65.58;98167.16;4925275;28;20120;-77
2022/12/27 03:59:43;;;;;;;5.55;1.10;;;;;;;7.01;64.91;98165.13;4939655;28;20079;-77
2022/12/27 04:02:09;;;;;;;4.55;2.03;;;;;;;6.93;64.60;98166.94;4973451;28;20826;-77
2022/12/27 04:04:34;;;;;;;4.88;0.90;;;;;;;7.03;64.53;98170.94;4950022;28;20112;-76
2022/12/27 04:07:00;;;;;;;4.85;1.98;;;;;;;6.92;64.69;98182.66;4927444;28;20028;-78
2022/12/27 04:36:46;;;;;;;4.90;2.03;;;;;;;6.36;65.42;98194.00;4959254;28;20033;-77
2022/12/27 04:39:12;;;;;;;2.05;0.90;;;;;;;6.47;65.17;98201.22;4961390;28;20209;-77
2022/12/27 04:55:27;;;;;;;2.42;1.35;;;;;;;6.16;64.78;98199.06;4976338;28;20036;-77
2022/12/27 04:57:53;;;;;;;4.82;1.08;;;;;;;6.10;65.74;98200.63;4941385;28;20796;-77
2022/12/27 05:03:08;;;;;;;6.47;1.52;;;;;;;5.93;66.87;98183.78;4938918;28;20025;-77
2022/12/27 05:05:34;;;;;;;3.85;1.65;;;;;;;5.77;66.28;98196.00;4922045;28;20040;-77
2022/12/27 05:16:13;;;;;;;3.92;1.65;;;;;;;6.00;66.49;98205.34;4975841;28;20188;-77
2022/12/27 05:18:38;;;;;;;6.57;2.25;;;;;;;6.05;66.59;98204.75;4938822;28;20279;-77
2022/12/27 05:21:05;;;;;;;5.05;1.77;;;;;;;5.87;66.78;98206.00;4953747;28;20078;-77
2022/12/27 05:26:23;;;;;;;5.38;2.70;;;;;;;6.00;66.71;98215.69;4949582;28;20284;-77
2022/12/27 05:28:52;;;;;;;8.77;2.17;;;;;;;6.14;66.27;98217.34;4921584;28;20031;-77
2022/12/27 05:31:19;;;;;;;6.00;2.78;;;;;;;6.11;67.21;98212.56;4936503;28;20231;-76
2022/12/27 05:33:44;;;;;;;5.47;2.90;;;;;;;6.29;66.39;98213.84;4935567;28;20038;-77
2022/12/27 05:36:34;;;;;;;8.40;3.13;;;;;;;6.13;66.08;98220.91;4945992;28;20055;-76
2022/12/27 05:39:00;;;;;;;7.18;3.20;;;;;;;6.22;66.92;98215.59;4974127;28;20037;-76
2022/12/27 05:41:25;;;;;;;10.80;3.50;;;;;;;6.09;66.66;98221.50;4954954;28;20661;-77
2022/12/27 05:43:51;;;;;;;6.88;4.07;;;;;;;6.15;67.53;98218.97;4939314;28;20302;-77
2022/12/27 05:46:18;;;;;;;5.97;3.22;;;;;;;6.27;67.60;98213.25;4921966;28;20222;-77
2022/12/27 05:48:44;;;;;;;6.85;3.63;;;;;;;6.33;67.03;98222.84;4938926;28;20028;-77
2022/12/27 05:51:11;;;;;;;7.85;3.60;;;;;;;6.03;67.54;98227.41;4947332;28;20653;-75
2022/12/27 05:53:36;;;;;;;8.00;4.10;;;;;;;5.99;68.06;98229.59;4946779;28;20142;-77
2022/12/27 05:56:02;;;;;;;9.48;4.03;;;;;;;6.18;68.00;98222.94;4918283;28;20029;-77
2022/12/27 05:58:27;;;;;;;12.32;4.55;;;;;;;6.27;68.11;98223.59;4903247;28;20021;-77
2022/12/27 06:00:53;;;;;;;10.07;5.30;;;;;;;6.21;67.57;98220.00;4917729;28;20173;-77
2022/12/27 06:03:18;;;;;;;9.35;4.88;;;;;;;6.07;68.45;98231.25;4912067;28;20033;-76
2022/12/27 06:05:46;;;;;;;9.13;5.07;;;;;;;6.48;67.35;98231.28;4942730;28;20021;-77
2022/12/27 06:08:12;;;;;;;14.30;5.38;;;;;;;6.39;67.00;98224.66;4953635;28;20640;-76
2022/12/27 06:10:38;;;;;;;8.05;4.10;;;;;;;6.07;68.76;98237.22;4953060;28;20220;-76
2022/12/27 06:13:04;;;;;;;10.45;5.40;;;;;;;6.41;67.67;98237.38;4953745;28;20192;-76
2022/12/27 06:15:29;;;;;;;9.60;5.43;;;;;;;6.37;67.45;98234.41;4954088;28;20794;-76
2022/12/27 06:17:55;;;;;;;11.52;5.85;;;;;;;6.28;67.32;98230.38;4954118;28;20124;-75
2022/12/27 06:20:20;;;;;;;10.68;5.10;;;;;;;6.42;67.33;98239.78;4936008;28;20053;-76
2022/12/27 06:22:46;;;;;;;15.15;5.80;;;;;;;6.61;67.55;98246.06;4937079;28;20268;-76
2022/12/27 06:25:11;;;;;;;9.30;5.18;;;;;;;6.73;66.72;98248.91;4926413;28;20095;-76
2022/12/27 06:27:36;;;;;;;10.68;5.25;;;;;;;6.68;66.21;98261.63;4930456;28;20607;-76
2022/12/27 06:30:03;;;;;;;14.68;5.75;;;;;;;6.45;66.96;98262.69;4936536;28;20045;-76
2022/12/27 06:32:29;;;;;;;14.70;6.38;;;;;;;6.62;67.44;98265.78;4936035;28;20700;-77
2022/12/27 06:34:54;;;;;;;8.68;5.10;;;;;;;6.42;67.28;98265.66;4950177;28;20167;-77
2022/12/27 06:37:19;;;;;;;12.30;5.35;;;;;;;6.65;67.02;98262.00;4943768;28;20040;-77
2022/12/27 06:39:45;;;;;;;10.82;5.30;;;;;;;6.60;66.52;98267.75;4971536;28;20036;-77
2022/12/27 06:42:10;;;;;;;10.00;4.78;;;;;;;6.81;66.69;98268.66;4944483;28;20029;-77
2022/12/27 06:44:35;;;;;;;11.55;5.60;;;;;;;6.74;67.24;98266.81;4940256;28;20036;-77
2022/12/27 06:47:01;;;;;;;11.32;6.82;;;;;;;6.61;67.04;98269.34;4937813;28;20330;-76
2022/12/27 06:49:27;;;;;;;10.60;5.65;;;;;;;6.57;67.73;98268.94;4953870;28;20887;-76
2022/12/27 06:51:53;;;;;;;11.05;5.75;;;;;;;6.75;66.06;98265.84;4954998;28;20071;-77
2022/12/27 06:54:18;;;;;;;10.68;5.97;;;;;;;6.88;66.10;98265.09;4954446;28;20177;-77
2022/12/27 06:56:44;;;;;;;15.93;6.03;;;;;;;6.57;66.59;98266.34;4937402;28;20117;-76
2022/12/27 06:59:09;;;;;;;8.65;5.03;;;;;;;6.59;66.30;98267.94;4954561;28;20253;-77
2022/12/27 07:01:35;;;;;;;11.13;6.00;;;;;;;6.61;66.80;98265.97;4937763;28;20029;-76
2022/12/27 07:04:00;;;;;;;14.70;5.60;;;;;;;6.67;66.49;98260.81;4937127;28;20116;-77
2022/12/27 07:06:29;;;;;;;11.38;6.32;;;;;;;6.73;66.36;98261.84;4942800;28;20584;-77
2022/12/27 07:08:56;;;;;;;9.35;4.90;;;;;;;6.75;66.01;98271.03;4920133;28;20664;-78
2022/12/27 07:11:22;;;;;;;13.00;5.30;;;;;;;6.81;65.95;98279.81;4954333;28;20194;-77
2022/12/27 07:13:49;;;;;;;11.48;5.28;;;;;;;6.80;65.47;98273.00;4954772;28;20025;-78
2022/12/27 07:16:16;;;;;;;10.20;6.10;;;;;;;6.38;67.01;98283.34;4931745;28;20064;-77
2022/12/27 07:18:42;;;;;;;11.75;5.55;;;;;;;6.79;66.72;98279.19;4953364;28;20748;-76
2022/12/27 07:21:13;;;;;;;8.60;4.57;;;;;;;6.94;65.55;98281.66;4945045;28;20428;-78
2022/12/27 07:23:39;;;;;;;10.27;4.88;;;;;;;6.84;65.88;98274.25;4948954;28;20823;-77
2022/12/27 07:26:10;;;;;;;10.38;4.45;;;;;;;6.68;66.12;98290.09;4934110;28;20029;-77
2022/12/27 07:28:36;;;;;;;10.15;5.30;;;;;;;6.89;65.98;98287.41;4954270;28;20173;-77
2022/12/27 07:31:21;;;;;;;8.80;4.53;;;;;;;6.94;66.03;98290.22;4954490;28;20196;-77
2022/12/27 07:33:47;;;;;;;10.00;4.82;;;;;;;6.76;66.32;98297.69;4949564;28;20642;-77
2022/12/27 07:36:15;;;;;;;8.80;4.65;;;;;;;6.81;66.56;98299.72;4954037;28;20032;-77
2022/12/27 07:38:40;;;;;;;8.57;4.30;;;;;;;6.87;65.56;98301.53;4937098;28;20211;-77
2022/12/27 07:41:06;;;;;;;11.48;5.47;;;;;;;6.56;66.18;98307.94;4936862;28;20075;-77
2022/12/27 07:43:33;;;;;;;7.28;4.32;;;;;;;6.75;66.61;98303.84;4926363;28;20564;-76
2022/12/27 07:46:05;;;;;;;11.00;3.88;;;;;;;6.77;66.11;98309.66;4936807;28;20028;-77
2022/12/27 07:48:31;;;;;;;12.20;4.55;;;;;;;6.81;66.39;98304.91;4933892;28;20025;-77
2022/12/27 07:50:57;;;;;;;7.22;4.40;;;;;;;6.87;65.72;98310.09;4934083;28;20036;-77
2022/12/27 07:53:22;;;;;;;8.23;4.75;;;;;;;6.81;66.71;98310.88;4953533;28;20039;-77
2022/12/27 07:55:49;;;;;;;9.40;3.85;;;;;;;6.90;66.67;98309.69;4954509;28;20102;-77
2022/12/27 07:58:15;;;;;;;6.82;3.33;;;;;;;6.93;65.50;98309.31;4945548;28;20031;-77
2022/12/27 08:00:40;;;;;;;8.30;3.65;;;;;;;6.96;65.68;98315.09;4953375;28;20021;-77
2022/12/27 08:03:06;;;;;;;7.07;3.58;;;;;;;7.02;65.58;98322.13;4925882;28;20669;-77
2022/12/27 08:05:31;;;;;;;6.10;2.88;;;;;;;7.06;65.46;98318.13;4939471;28;20649;-77
2022/12/27 08:08:00;;;;;;;8.80;3.47;;;;;;;7.03;66.25;98326.31;4954707;28;20564;-77
2022/12/27 08:10:26;;;;;;;11.43;3.50;;;;;;;7.11;65.65;98320.94;4938882;28;20025;-77
2022/12/27 08:12:51;;;;;;;8.07;3.30;;;;;;;7.04;65.90;98323.53;4936788;28;20603;-77
2022/12/27 08:15:16;;;;;;;5.20;2.85;;;;;;;7.09;65.26;98322.94;4948366;28;20029;-77
2022/12/27 08:17:42;;;;;;;13.73;3.20;;;;;;;7.06;65.16;98318.13;4923095;28;20251;-77
2022/12/27 08:20:12;;;;;;;7.25;2.97;;;;;;;7.27;65.29;98330.97;4922992;28;20081;-77
2022/12/27 08:22:37;;;;;;;6.78;2.65;;;;;;;7.18;65.10;98334.75;4940634;28;20021;-78
2022/12/27 08:25:03;;;;;;;5.65;2.33;;;;;;;7.28;65.23;98327.41;4923815;28;20712;-78
2022/12/27 08:27:28;;;;;;;8.43;2.83;;;;;;;7.11;65.26;98331.31;4939596;28;20655;-77
2022/12/27 08:29:55;;;;;;;7.47;2.33;;;;;;;7.04;65.69;98335.66;4937550;28;20137;-77
2022/12/27 08:32:24;;;;;;;7.68;2.67;;;;;;;7.21;65.53;98331.75;4905693;28;20124;-79
2022/12/27 08:34:49;;;;;;;6.03;2.38;;;;;;;7.29;65.49;98329.00;4939493;28;20029;-78
2022/12/27 08:37:14;;;;;;;7.40;3.25;;;;;;;7.26;65.48;98333.75;4922962;28;20029;-78
2022/12/27 08:39:40;;;;;;;6.38;2.60;;;;;;;7.30;65.26;98327.22;4922531;28;20233;-78
2022/12/27 08:42:09;;;;;;;9.05;4.13;;;;;;;7.32;64.98;98323.41;4923528;28;20037;-78
2022/12/27 08:44:35;;;;;;;9.45;2.65;;;;;;;7.42;64.68;98333.44;4938186;28;20059;-78
2022/12/27 08:47:00;;;;;;;6.32;2.65;;;;;;;7.45;65.00;98333.03;4939145;28;20433;-79
2022/12/27 08:49:25;;;;;;;3.97;2.30;;;;;;;7.45;64.14;98332.22;4959137;28;20602;-77
2022/12/27 08:51:51;;;;;;;7.82;3.40;;;;;;;7.56;64.79;98339.44;4938410;28;20037;-77
2022/12/27 08:54:16;;;;;;;7.93;2.45;;;;;;;7.54;64.03;98344.03;4919354;28;20304;-78
2022/12/27 08:56:41;;;;;;;7.82;2.33;;;;;;;7.61;64.49;98350.03;4942716;28;20067;-77
2022/12/27 08:59:07;;;;;;;4.20;2.42;;;;;;;7.56;64.35;98342.03;4957881;28;20029;-78
2022/12/27 09:01:32;;;;;;;6.28;2.20;;;;;;;7.62;65.10;98353.41;4941904;28;20102;-77
2022/12/27 09:03:58;;;;;;;7.20;2.33;;;;;;;7.72;64.58;98353.03;4957585;28;20033;-77
2022/12/27 09:06:24;;;;;;;7.82;2.58;;;;;;;7.60;64.52;98356.19;4921589;28;20770;-78
2022/12/27 09:08:50;;;;;;;7.72;2.47;;;;;;;7.54;64.56;98356.16;4942463;28;20025;-78
2022/12/27 09:11:18;;;;;;;7.97;2.85;;;;;;;7.49;64.32;98351.59;4958212;28;20075;-77
2022/12/27 09:13:44;;;;;;;4.00;2.05;;;;;;;7.60;64.67;98350.22;4957744;28;20198;-78
2022/12/27 09:16:15;;;;;;;4.93;2.50;;;;;;;7.87;64.48;98345.88;4949250;28;20033;-78
2022/12/27 09:18:41;;;;;;;6.13;2.55;;;;;;;7.77;64.55;98343.66;4939149;28;20198;-78
2022/12/27 09:21:11;;;;;;;6.95;2.33;;;;;;;7.86;63.99;98344.28;4934683;28;20049;-76
2022/12/27 09:23:37;;;;;;;3.97;2.13;;;;;;;7.90;64.11;98355.03;4947146;28;20722;-77
2022/12/27 09:26:10;;;;;;;5.40;2.40;;;;;;;8.02;64.41;98350.88;4956987;28;20027;-78
2022/12/27 09:28:36;;;;;;;7.07;2.05;;;;;;;8.02;63.67;98350.88;4940696;28;20919;-78
2022/12/27 09:31:02;;;;;;;4.68;2.15;;;;;;;7.88;63.43;98345.69;4956679;28;20120;-78
2022/12/27 09:33:28;;;;;;;5.57;2.33;;;;;;;8.00;64.76;98352.88;4937630;28;20124;-78
2022/12/27 09:36:06;;;;;;;8.00;1.77;;;;;;;8.19;64.24;98353.88;4934331;28;20108;-77
2022/12/27 09:38:32;;;;;;;5.80;2.35;;;;;;;8.07;64.56;98362.25;4937924;28;20749;-77
2022/12/27 09:41:00;;;;;;;5.32;1.98;;;;;;;8.10;63.91;98363.66;4953605;28;20030;-78
2022/12/27 09:43:57;;;;;;;4.95;2.10;;;;;;;8.21;64.02;98367.47;4940519;28;20631;-78
2022/12/27 09:46:39;;;;;;;4.18;2.00;;;;;;;8.16;64.07;98370.66;4950959;28;20037;-77
2022/12/27 09:49:08;;;;;;;5.78;1.90;;;;;;;8.04;64.86;98367.84;4921029;28;20122;-77
2022/12/27 09:51:50;;;;;;;5.80;2.20;;;;;;;8.26;64.47;98365.06;4933700;28;20032;-78
2022/12/27 09:54:43;;;;;;;4.40;1.90;;;;;;;8.12;64.19;98358.25;4921016;28;20296;-77
2022/12/27 09:57:23;;;;;;;5.05;2.03;;;;;;;8.32;63.30;98360.88;4929194;28;20800;-78
2022/12/27 09:59:52;;;;;;;9.05;2.38;;;;;;;8.27;63.83;98358.06;4956208;28;20664;-77
2022/12/27 10:02:22;;;;;;;7.47;1.98;;;;;;;8.10;64.46;98355.06;4923485;28;20053;-77
2022/12/27 10:04:48;;;;;;;4.53;1.95;;;;;;;8.03;64.53;98355.06;4936654;28;20022;-78
2022/12/27 10:07:35;;;;;;;3.75;1.85;;;;;;;8.33;64.54;98365.88;4956097;28;20040;-77
2022/12/27 10:10:15;;;;;;;5.55;2.17;;;;;;;8.39;63.74;98353.88;4956748;28;20090;-77
2022/12/27 10:13:01;;;;;;;9.10;1.92;;;;;;;8.38;64.18;98352.28;4958166;28;20217;-77
2022/12/27 10:16:04;;;;;;;4.45;2.15;;;;;;;8.52;64.51;98348.72;4918706;28;20041;-77
2022/12/27 10:18:41;;;;;;;5.63;1.70;;;;;;;8.34;63.88;98346.69;4954093;28;20060;-76
2022/12/27 10:21:20;;;;;;;5.28;1.85;;;;;;;8.53;62.53;98339.13;4925480;28;20038;-78
2022/12/27 10:24:13;;;;;;;5.70;1.98;;;;;;;8.51;63.66;98339.31;4942993;28;20021;-77
2022/12/27 10:26:39;;;;;;;5.82;2.05;;;;;;;8.13;63.18;98328.75;4930146;28;20064;-78
2022/12/27 10:29:22;;;;;;;5.15;1.90;;;;;;;8.41;63.24;98331.09;4972805;28;21086;-77
2022/12/27 10:31:48;;;;;;;7.00;1.95;;;;;;;8.33;63.45;98319.16;4936684;28;20083;-78
2022/12/27 10:34:15;;;;;;;5.55;2.13;;;;;;;8.39;63.85;98338.31;4936190;28;20328;-77
2022/12/27 10:36:42;;;;;;;5.47;1.42;;;;;;;8.34;62.88;98336.31;4936482;28;20083;-77
2022/12/27 10:39:16;;;;;;;4.95;1.40;;;;;;;8.52;63.00;98337.53;4936319;28;20612;-78
2022/12/27 10:42:30;;;;;;;4.32;1.42;;;;;;;8.57;62.94;98340.31;4936034;28;20029;-77
2022/12/27 10:45:35;;;;;;;4.53;1.45;;;;;;;8.42;62.63;98327.53;4891815;28;20599;-76
2022/12/27 10:48:15;;;;;;;7.10;2.05;;;;;;;8.44;62.31;98321.16;4952764;28;20026;-78
2022/12/27 10:50:56;;;;;;;5.15;2.53;;;;;;;8.54;62.65;98325.16;4914974;28;20033;-77
2022/12/27 10:53:31;;;;;;;6.75;2.45;;;;;;;8.61;61.93;98331.13;4938406;28;20227;-77
2022/12/27 10:56:11;;;;;;;4.68;1.40;;;;;;;8.64;61.98;98330.72;4954958;28;20186;-78
2022/12/27 10:58:39;;;;;;;5.47;1.70;;;;;;;8.58;61.99;98328.94;4919941;28;20123;-78
2022/12/27 11:01:07;;;;;;;2.90;1.10;;;;;;;8.56;62.42;98333.53;4949777;28;20033;-78
2022/12/27 11:03:33;;;;;;;4.20;2.58;;;;;;;8.61;61.93;98331.13;4935790;28;20130;-78
2022/12/27 11:06:17;;;;;;;7.25;1.60;;;;;;;8.75;61.78;98340.47;4922908;28;20661;-78
2022/12/27 11:08:42;;;;;;;3.55;1.20;;;;;;;8.74;60.81;98327.69;4955754;28;20147;-78
2022/12/27 11:11:21;;;;;;;6.88;1.38;;;;;;;8.90;60.97;98318.66;4955532;28;20136;-78
2022/12/27 11:13:47;;;;;;;5.32;1.60;;;;;;;8.85;61.37;98321.88;4939445;28;20041;-78
2022/12/27 11:16:34;;;;;;;4.95;1.48;;;;;;;8.90;61.72;98319.47;4938827;28;20188;-77
2022/12/27 11:18:59;;;;;;;5.38;1.45;;;;;;;8.94;61.54;98320.63;4955582;28;20741;-78
2022/12/27 11:21:26;;;;;;;6.68;1.80;;;;;;;9.01;61.46;98315.41;4954682;28;20032;-78
2022/12/27 11:23:55;;;;;;;5.15;1.45;;;;;;;9.05;61.37;98314.03;4972576;28;20025;-78
2022/12/27 11:26:23;;;;;;;4.60;1.17;;;;;;;9.14;60.71;98322.38;4939455;28;20279;-78
2022/12/27 11:29:00;;;;;;;6.00;1.00;;;;;;;9.02;60.37;98316.25;4939640;28;20634;-78
2022/12/27 11:31:29;;;;;;;4.00;1.17;;;;;;;9.02;60.50;98331.81;4935916;28;20045;-77
2022/12/27 11:33:58;;;;;;;2.47;0.75;;;;;;;8.97;60.66;98327.22;4951023;28;20033;-79
2022/12/27 11:36:28;;;;;;;2.22;1.52;;;;;;;9.07;60.62;98326.81;4954973;28;20029;-78
2022/12/27 11:38:54;;;;;;;6.20;1.40;;;;;;;8.96;60.20;98323.03;4935550;28;20752;-78
2022/12/27 11:41:30;;;;;;;2.67;1.13;;;;;;;8.99;60.67;98318.22;4937393;28;20099;-78
2022/12/27 11:43:59;;;;;;;5.45;1.73;;;;;;;9.08;60.61;98326.59;4954965;28;20612;-79
2022/12/27 11:46:41;;;;;;;6.82;1.65;;;;;;;9.02;61.23;98330.00;4935729;28;20363;-77
2022/12/27 11:49:17;;;;;;;4.00;1.27;;;;;;;8.95;61.73;98321.44;4955634;28;20165;-77
2022/12/27 11:51:54;;;;;;;4.93;1.50;;;;;;;8.89;61.51;98325.66;4942687;28;20036;-77
2022/12/27 11:54:37;;;;;;;6.68;1.45;;;;;;;8.87;61.13;98326.88;4957234;28;20225;-77
2022/12/27 11:57:30;;;;;;;3.58;1.52;;;;;;;9.06;61.10;98320.78;4942091;28;20890;-79
2022/12/27 12:00:15;;;;;;;2.42;1.60;;;;;;;8.93;60.94;98324.25;4941795;28;20281;-78
2022/12/27 12:03:14;;;;;;;5.90;1.88;;;;;;;9.02;61.03;98322.22;4939080;28;20038;-78
2022/12/27 12:06:11;;;;;;;5.05;1.52;;;;;;;8.93;61.50;98310.47;4944251;28;20647;-78
2022/12/27 12:08:43;;;;;;;3.92;1.60;;;;;;;8.93;61.59;98318.28;4922739;28;20033;-78
2022/12/27 12:11:53;;;;;;;5.93;2.03;;;;;;;8.88;61.52;98313.69;4923606;28;20026;-78
2022/12/27 12:14:27;;;;;;;5.75;1.50;;;;;;;8.86;61.80;98323.47;4976294;28;20241;-78
2022/12/27 12:17:22;;;;;;;5.28;1.50;;;;;;;9.12;61.17;98321.78;4942215;28;20114;-78
2022/12/27 12:20:06;;;;;;;4.03;1.85;;;;;;;9.21;60.71;98317.16;4907072;28;20037;-78
2022/12/27 12:22:50;;;;;;;4.78;1.60;;;;;;;8.94;60.87;98319.84;4938534;28;20498;-78
2022/12/27 12:25:16;;;;;;;6.25;1.60;;;;;;;9.05;61.07;98314.03;4956747;28;20029;-78
2022/12/27 12:27:56;;;;;;;4.97;1.85;;;;;;;9.12;60.87;98316.59;4958575;28;20035;-78
2022/12/27 12:30:55;;;;;;;4.45;1.80;;;;;;;9.08;61.31;98313.63;4958075;28;20025;-78
2022/12/27 12:33:28;;;;;;;2.92;1.70;;;;;;;9.12;61.64;98312.19;4939101;28;20036;-78
2022/12/27 12:36:05;;;;;;;5.28;2.65;;;;;;;8.93;61.84;98313.06;4962217;28;20718;-78
2022/12/27 12:39:05;;;;;;;5.00;1.88;;;;;;;9.07;61.27;98312.00;4952692;28;20703;-78
2022/12/27 12:41:42;;;;;;;5.43;2.17;;;;;;;9.14;61.67;98310.19;4902200;28;20054;-78
2022/12/27 12:44:36;;;;;;;3.67;1.60;;;;;;;9.22;61.53;98316.13;4940383;28;20124;-78
2022/12/27 12:47:17;;;;;;;5.32;1.90;;;;;;;9.21;61.50;98307.56;4958566;28;20040;-78
2022/12/27 12:49:48;;;;;;;6.22;1.83;;;;;;;9.26;61.30;98307.72;4969435;28;20107;-78
2022/12/27 12:52:30;;;;;;;7.13;2.10;;;;;;;9.10;61.48;98303.81;4958271;28;20185;-79
2022/12/27 12:55:34;;;;;;;3.15;1.58;;;;;;;9.32;62.24;98306.09;4938208;28;20535;-77
2022/12/27 12:58:26;;;;;;;3.42;1.67;;;;;;;9.52;61.16;98301.56;4914800;28;20072;-79
2022/12/27 13:01:13;;;;;;;3.90;2.00;;;;;;;9.69;60.93;98298.50;4952223;28;20131;-78
2022/12/27 13:04:15;;;;;;;5.57;1.73;;;;;;;9.79;60.62;98285.03;4957726;28;20033;-78
2022/12/27 13:06:59;;;;;;;6.40;1.67;;;;;;;9.77;60.77;98281.81;4974843;28;20029;-78
2022/12/27 13:09:57;;;;;;;3.38;1.55;;;;;;;9.86;60.54;98286.56;4956758;28;20294;-78
2022/12/27 13:12:30;;;;;;;3.67;1.35;;;;;;;9.75;60.56;98280.25;4948950;28;20030;-78
2022/12/27 13:15:19;;;;;;;4.78;1.67;;;;;;;9.77;60.01;98277.44;4956964;28;20329;-78
2022/12/27 13:18:07;;;;;;;4.72;1.58;;;;;;;9.79;60.54;98283.22;4949740;28;20037;-78
2022/12/27 13:21:08;;;;;;;4.97;1.80;;;;;;;9.90;60.04;98277.34;4938334;28;20104;-77
2022/12/27 13:23:55;;;;;;;4.32;1.42;;;;;;;9.82;60.88;98277.59;4935702;28;20036;-78
2022/12/27 13:26:35;;;;;;;3.97;1.65;;;;;;;9.78;60.19;98275.63;4936968;28;20186;-78
2022/12/27 13:29:16;;;;;;;4.55;1.70;;;;;;;9.74;60.55;98273.44;4936787;28;20018;-78
2022/12/27 13:32:00;;;;;;;2.88;1.33;;;;;;;9.80;60.74;98271.00;4937262;28;20741;-78
2022/12/27 13:34:48;;;;;;;4.73;1.47;;;;;;;9.88;60.67;98274.13;4956086;28;20592;-78
2022/12/27 13:37:14;;;;;;;4.10;1.73;;;;;;;9.72;60.92;98264.25;4922632;28;20541;-78
2022/12/27 13:40:03;;;;;;;4.05;1.20;;;;;;;9.93;60.50;98276.09;4949771;28;20041;-79
2022/12/27 13:42:50;;;;;;;5.38;1.60;;;;;;;9.86;60.26;98273.53;4939084;28;20782;-78